createdAt,value
2022-08-16T02:46:07.573Z,10.90
2022-08-16T02:47:04.781Z,11.50
2022-08-16T02:48:28.385Z,11.00
2022-08-16T02:49:05.821Z,9.20
2022-08-16T02:51:06.397Z,10.00
2022-08-16T02:51:10.551Z,9.00
2022-08-16T02:52:04.575Z,9.30
2022-08-16T02:53:04.800Z,10.10
2022-08-16T02:54:04.577Z,8.40
2022-08-16T02:55:04.539Z,9.70
2022-08-16T02:56:05.289Z,10.10
2022-08-16T02:57:04.524Z,9.20
2022-08-16T02:58:04.514Z,10.10
2022-08-16T02:59:11.351Z,9.70
2022-08-16T03:00:32.037Z,9.60
2022-08-16T03:01:05.560Z,10.70
2022-08-16T03:02:08.879Z,10.90
2022-08-16T03:03:05.835Z,8.50
2022-08-16T03:04:29.628Z,9.20
2022-08-16T03:05:06.889Z,8.50
2022-08-16T03:06:41.525Z,11.10
2022-08-16T03:07:06.727Z,10.80
2022-08-16T03:08:05.697Z,11.20
2022-08-16T03:09:08.817Z,11.70
2022-08-16T03:10:05.698Z,10.40
2022-08-16T03:11:05.681Z,8.90
2022-08-16T03:12:06.646Z,10.50
2022-08-16T03:13:12.240Z,9.00
2022-08-16T03:14:07.794Z,9.20
2022-08-16T03:15:05.560Z,11.00
2022-08-16T03:16:05.611Z,9.30
2022-08-16T03:17:32.599Z,11.20
2022-08-16T03:18:05.945Z,9.80
2022-08-16T03:19:07.749Z,10.60
2022-08-16T03:22:45.403Z,10.90
2022-08-16T03:23:53.994Z,11.60
2022-08-16T03:24:46.570Z,10.90
2022-08-16T03:26:18.791Z,11.40
2022-08-16T03:27:18.816Z,11.60
2022-08-16T03:28:20.275Z,9.90
2022-08-16T03:28:46.453Z,9.60
2022-08-16T03:31:43.955Z,9.60
2022-08-16T03:34:10.935Z,9.20
2022-08-16T03:35:11.038Z,10.10
2022-08-16T03:36:30.260Z,11.20
2022-08-16T03:38:37.849Z,9.70
2022-08-16T03:41:25.170Z,10.00
2022-08-16T03:42:23.320Z,10.70
2022-08-16T03:43:51.183Z,13.50
2022-08-16T03:44:43.487Z,10.30
2022-08-16T03:45:27.263Z,8.80
2022-08-16T03:46:44.474Z,11.10
2022-08-16T03:47:24.149Z,11.50
2022-08-16T03:53:37.975Z,9.60
2022-08-16T03:54:30.863Z,10.30
2022-08-16T03:55:37.100Z,9.80
2022-08-16T03:56:31.853Z,8.60
2022-08-16T03:57:31.817Z,10.60
2022-08-16T03:58:32.038Z,8.80
2022-08-16T03:59:30.706Z,9.20
2022-08-16T04:00:40.989Z,10.90
2022-08-16T04:01:31.751Z,9.80
2022-08-16T04:02:31.715Z,8.80
2022-08-16T04:03:31.673Z,10.90
2022-08-16T04:04:33.322Z,9.40
2022-08-16T04:05:32.101Z,10.20
2022-08-16T04:06:31.895Z,13.50
2022-08-16T04:07:33.380Z,9.60
2022-08-16T04:09:05.865Z,10.40
2022-08-16T04:09:35.203Z,12.20
2022-08-16T04:11:05.715Z,11.90
2022-08-16T04:12:04.416Z,11.80
2022-08-16T04:14:46.496Z,10.10
2022-08-16T04:17:08.373Z,11.90
2022-08-16T04:18:16.053Z,11.90
2022-08-16T04:19:08.516Z,12.60
2022-08-16T04:20:42.128Z,12.50
2022-08-16T04:21:10.420Z,11.50
2022-08-16T04:22:09.627Z,11.20
2022-08-16T04:23:09.524Z,10.50
2022-08-16T04:24:43.186Z,12.90
2022-08-16T04:25:10.675Z,12.60
2022-08-16T04:26:16.685Z,12.30
2022-08-16T04:27:36.075Z,12.80
2022-08-16T04:28:51.899Z,13.00
2022-08-16T04:29:16.599Z,13.00
2022-08-16T04:30:41.878Z,12.20
2022-08-16T04:31:10.697Z,12.50
2022-08-16T04:32:42.940Z,11.60
2022-08-16T04:33:37.333Z,11.70
2022-08-16T04:34:09.623Z,10.30
2022-08-16T04:35:43.326Z,12.00
2022-08-16T04:36:10.609Z,9.90
2022-08-16T04:37:10.493Z,9.80
2022-08-16T04:40:50.861Z,9.70
2022-08-16T04:41:50.907Z,11.10
2022-08-16T04:42:51.072Z,10.90
2022-08-16T04:43:50.812Z,9.70
2022-08-16T04:44:54.590Z,12.90
2022-08-16T04:46:00.281Z,10.50
2022-08-16T04:47:24.687Z,13.00
2022-08-16T04:47:55.989Z,13.70
2022-08-16T04:48:52.318Z,10.80
2022-08-16T04:49:52.193Z,10.60
2022-08-16T04:50:52.817Z,10.90
2022-08-16T04:51:53.946Z,10.60
2022-08-16T04:52:51.959Z,11.40
2022-08-16T04:53:52.046Z,12.40
2022-08-16T04:54:51.896Z,10.50
2022-08-16T04:55:53.373Z,11.90
2022-08-16T04:56:51.875Z,11.90
2022-08-16T04:57:53.223Z,10.70
2022-08-16T04:58:51.846Z,11.40
2022-08-16T04:59:51.919Z,10.00
2022-08-16T05:01:24.334Z,13.20
2022-08-16T05:01:59.227Z,10.90
2022-08-16T05:03:18.424Z,11.70
2022-08-16T05:03:59.671Z,11.30
2022-08-16T05:04:53.849Z,11.10
2022-08-16T05:05:59.533Z,10.80
2022-08-16T05:06:52.856Z,10.10
2022-08-16T05:07:58.257Z,10.60
2022-08-16T05:08:53.041Z,11.00
2022-08-16T05:09:51.697Z,11.10
2022-08-16T05:10:51.822Z,10.00
2022-08-16T05:11:51.853Z,10.60
2022-08-16T05:12:51.730Z,9.30
2022-08-16T05:13:51.901Z,11.40
2022-08-16T05:15:01.798Z,9.30
2022-08-16T05:15:52.989Z,11.60
2022-08-16T05:16:52.187Z,9.80
2022-08-16T05:17:59.612Z,9.80
2022-08-16T05:18:52.769Z,11.80
2022-08-16T05:19:58.103Z,9.70
2022-08-16T05:20:54.200Z,8.80
2022-08-16T05:21:52.739Z,8.90
2022-08-16T05:22:51.627Z,9.20
2022-08-16T05:23:58.697Z,9.50
2022-08-16T05:24:54.850Z,9.20
2022-08-16T05:25:51.654Z,9.50
2022-08-16T05:26:51.809Z,10.30
2022-08-16T05:27:51.582Z,11.50
2022-08-16T05:28:55.591Z,10.00
2022-08-16T05:29:57.795Z,9.70
2022-08-16T05:30:52.671Z,10.80
2022-08-16T05:31:53.086Z,9.30
2022-08-16T05:32:51.900Z,9.90
2022-08-16T05:33:53.589Z,8.40
2022-08-16T05:34:51.503Z,11.00
2022-08-16T05:35:54.955Z,10.50
2022-08-16T05:36:51.563Z,10.30
2022-08-16T05:37:51.509Z,10.70
2022-08-16T05:38:51.468Z,11.30
2022-08-16T05:39:55.384Z,11.30
2022-08-16T05:40:59.702Z,9.10
2022-08-16T05:41:51.875Z,10.20
2022-08-16T05:42:51.688Z,10.30
2022-08-16T05:43:51.453Z,11.40
2022-08-16T05:44:52.497Z,8.50
2022-08-16T05:45:51.381Z,9.40
2022-08-16T05:46:51.557Z,9.30
2022-08-16T05:48:00.273Z,8.90
2022-08-16T05:48:55.033Z,9.20
2022-08-16T05:49:51.312Z,10.80
2022-08-16T05:50:52.917Z,8.80
2022-08-16T05:52:28.284Z,11.30
2022-08-16T05:52:51.926Z,9.50
2022-08-16T05:53:52.854Z,8.90
2022-08-16T05:55:01.130Z,9.20
2022-08-16T05:55:54.651Z,9.40
2022-08-16T05:56:51.565Z,7.40
2022-08-16T05:57:52.582Z,8.30
2022-08-16T05:58:51.163Z,8.00
2022-08-16T06:00:24.956Z,9.60
2022-08-16T06:00:51.819Z,9.90
2022-08-16T06:01:51.362Z,7.20
2022-08-16T06:03:29.636Z,7.90
2022-08-16T06:03:51.491Z,8.50
2022-08-16T06:05:25.191Z,7.90
2022-08-16T06:06:27.989Z,6.70
2022-08-16T06:06:56.883Z,7.60
2022-08-16T06:08:32.489Z,8.60
2022-08-16T06:08:52.584Z,6.90
2022-08-16T06:09:51.610Z,7.30
2022-08-16T06:11:02.671Z,7.80
2022-08-16T06:11:52.408Z,6.10
2022-08-16T06:12:55.675Z,6.40
2022-08-16T06:13:52.360Z,8.00
2022-08-16T06:14:51.699Z,6.10
2022-08-16T06:15:51.376Z,6.90
2022-08-16T06:16:51.442Z,6.60
2022-08-16T06:17:51.873Z,6.90
2022-08-16T06:18:51.989Z,6.50
2022-08-16T06:19:56.968Z,5.30
2022-08-16T06:20:55.639Z,6.50
2022-08-16T06:21:54.810Z,6.80
2022-08-16T06:22:58.769Z,7.00
2022-08-16T06:23:54.388Z,6.00
2022-08-16T06:24:55.706Z,6.30
2022-08-16T06:25:53.058Z,5.70
2022-08-16T06:26:57.732Z,5.70
2022-08-16T06:27:57.330Z,5.70
2022-08-16T06:28:52.741Z,5.50
2022-08-16T06:29:53.976Z,5.40
2022-08-16T06:30:51.474Z,5.50
2022-08-16T06:31:50.901Z,6.00
2022-08-16T06:32:51.019Z,6.20
2022-08-16T06:33:51.837Z,5.20
2022-08-16T06:34:56.898Z,7.10
2022-08-16T06:35:54.954Z,5.80
2022-08-16T06:36:51.993Z,6.10
2022-08-16T06:37:52.541Z,5.40
2022-08-16T06:38:56.035Z,5.50
2022-08-16T06:39:51.948Z,5.70
2022-08-16T06:40:53.398Z,5.20
2022-08-16T06:41:52.892Z,5.40
2022-08-16T06:42:55.363Z,5.30
2022-08-16T06:43:52.897Z,5.50
2022-08-16T06:44:50.866Z,5.00
2022-08-16T06:45:50.727Z,5.30
2022-08-16T06:46:51.828Z,6.60
2022-08-16T06:47:53.072Z,5.30
2022-08-16T06:48:51.923Z,7.30
2022-08-16T06:49:52.626Z,5.50
2022-08-16T06:50:50.744Z,5.90
2022-08-16T06:51:50.774Z,6.00
2022-08-16T06:52:59.937Z,5.80
2022-08-16T06:53:52.747Z,5.50
2022-08-16T06:54:51.028Z,6.10
2022-08-16T06:55:53.604Z,5.20
2022-08-16T06:56:54.064Z,5.70
2022-08-16T06:57:51.037Z,6.10
2022-08-16T06:58:53.595Z,5.40
2022-08-16T06:59:53.145Z,5.30
2022-08-16T07:00:51.932Z,5.50
2022-08-16T07:01:54.028Z,4.90
2022-08-16T07:02:51.896Z,5.20
2022-08-16T07:03:54.625Z,5.20
2022-08-16T07:04:56.034Z,6.60
2022-08-16T07:05:50.633Z,6.10
2022-08-16T07:06:50.566Z,6.40
2022-08-16T07:07:50.855Z,4.90
2022-08-16T07:08:50.539Z,5.10
2022-08-16T07:09:51.304Z,7.80
2022-08-16T07:10:50.617Z,5.00
2022-08-16T07:11:52.220Z,5.00
2022-08-16T07:13:03.251Z,6.40
2022-08-16T07:14:00.596Z,4.80
2022-08-16T07:14:52.561Z,4.70
2022-08-16T07:15:51.159Z,4.40
2022-08-16T07:16:50.920Z,5.00
2022-08-16T07:17:59.202Z,5.00
2022-08-16T07:18:59.233Z,5.30
2022-08-16T07:20:04.077Z,5.10
2022-08-16T07:20:51.374Z,4.80
2022-08-16T07:21:59.711Z,5.10
2022-08-16T07:22:53.006Z,5.20
2022-08-16T07:23:57.996Z,6.40
2022-08-16T07:24:51.746Z,6.40
2022-08-16T07:25:55.260Z,5.60
2022-08-16T07:26:51.491Z,6.30
2022-08-16T07:27:50.380Z,4.70
2022-08-16T07:28:50.434Z,4.20
2022-08-16T07:29:53.380Z,5.20
2022-08-16T07:30:51.663Z,4.70
2022-08-16T07:31:50.367Z,5.60
2022-08-16T07:32:53.248Z,4.40
2022-08-16T07:33:52.313Z,5.40
2022-08-16T07:34:50.277Z,6.80
2022-08-16T07:35:57.934Z,5.20
2022-08-16T07:36:58.032Z,5.60
2022-08-16T07:37:51.308Z,4.20
2022-08-16T07:38:50.275Z,5.10
2022-08-16T07:39:50.245Z,4.80
2022-08-16T07:41:00.080Z,6.00
2022-08-16T07:41:52.182Z,5.20
2022-08-16T07:42:50.549Z,5.50
2022-08-16T07:44:00.579Z,5.50
2022-08-16T07:44:50.842Z,5.00
2022-08-16T07:45:53.073Z,5.20
2022-08-16T07:54:37.873Z,4.50
2022-08-16T07:55:26.492Z,4.70
2022-08-16T07:56:34.010Z,5.10
2022-08-16T07:57:26.461Z,4.40
2022-08-16T07:58:35.156Z,4.10
2022-08-16T07:59:26.544Z,3.90
2022-08-16T08:00:53.124Z,4.10
2022-08-16T08:01:25.433Z,4.20
2022-08-16T08:02:27.353Z,4.10
2022-08-16T08:03:25.195Z,4.90
2022-08-16T08:04:26.853Z,5.00
2022-08-16T08:05:35.792Z,4.90
2022-08-16T08:06:26.576Z,6.30
2022-08-16T08:07:28.151Z,4.20
2022-08-16T08:08:50.643Z,4.50
2022-08-16T08:09:26.207Z,3.80
2022-08-16T08:10:57.590Z,3.60
2022-08-16T08:11:28.197Z,5.20
2022-08-16T08:12:32.317Z,5.10
2022-08-16T08:13:53.880Z,4.00
2022-08-16T08:14:29.772Z,3.90
2022-08-16T08:15:57.655Z,4.00
2022-08-16T08:16:30.603Z,3.70
2022-08-16T08:19:32.683Z,3.90
2022-08-16T08:20:40.276Z,3.80
2022-08-16T08:21:59.510Z,4.10
2022-08-16T08:22:33.689Z,3.80
2022-08-16T08:23:32.636Z,4.50
2022-08-16T08:24:34.113Z,4.00
2022-08-16T08:25:55.164Z,4.90
2022-08-16T08:26:34.881Z,3.40
2022-08-16T08:27:34.091Z,3.20
2022-08-16T08:28:35.906Z,4.40
2022-08-16T08:29:36.795Z,3.30
2022-08-16T08:30:52.315Z,4.50
2022-08-16T08:32:57.969Z,4.30
2022-08-16T08:32:58.663Z,3.60
2022-08-16T08:33:36.388Z,3.60
2022-08-16T08:34:33.683Z,6.00
2022-08-16T08:35:33.630Z,3.70
2022-08-16T08:37:06.256Z,3.60
2022-08-16T08:37:55.537Z,4.40
2022-08-16T08:38:43.870Z,5.10
2022-08-16T08:39:55.043Z,3.70
2022-08-16T08:40:36.107Z,5.20
2022-08-16T08:41:33.660Z,4.20
2022-08-16T08:42:33.667Z,3.80
2022-08-16T08:44:28.467Z,4.30
2022-08-16T08:44:35.366Z,4.30
2022-08-16T08:45:48.032Z,3.70
2022-08-16T08:46:35.744Z,3.70
2022-08-16T08:47:33.571Z,2.90
2022-08-16T08:52:12.293Z,4.70
2022-08-16T08:53:13.393Z,3.10
2022-08-16T08:54:12.300Z,3.50
2022-08-16T08:59:55.677Z,3.40
2022-08-16T09:00:55.942Z,4.80
2022-08-16T09:01:57.935Z,3.70
2022-08-16T09:02:56.329Z,4.70
2022-08-16T09:03:55.670Z,3.30
2022-08-16T09:04:55.581Z,4.10
2022-08-16T09:05:56.823Z,2.70
2022-08-16T09:06:58.571Z,2.90
2022-08-16T09:08:02.014Z,3.70
2022-08-16T09:08:57.811Z,2.60
2022-08-16T09:10:00.894Z,2.50
2022-08-16T09:11:01.933Z,3.30
2022-08-16T09:12:05.944Z,4.30
2022-08-16T09:15:43.621Z,3.10
2022-08-16T09:20:23.375Z,2.70
2022-08-16T09:21:31.437Z,5.40
2022-08-16T09:22:24.711Z,3.20
2022-08-16T09:23:24.132Z,2.40
2022-08-16T09:24:51.849Z,2.80
2022-08-16T09:27:56.435Z,2.70
2022-08-16T09:29:14.930Z,3.10
2022-08-16T09:29:44.802Z,3.40
2022-08-16T09:30:43.921Z,3.30
2022-08-16T09:31:41.292Z,2.80
2022-08-16T09:32:39.148Z,3.00
2022-08-16T09:35:45.740Z,2.60
2022-08-16T09:36:53.965Z,4.50
2022-08-16T09:37:47.373Z,2.70
2022-08-16T09:38:48.507Z,2.80
2022-08-16T09:42:02.022Z,3.40
2022-08-16T09:43:10.128Z,2.80
2022-08-16T09:45:11.105Z,2.90
2022-08-16T09:45:12.620Z,4.10
2022-08-16T09:46:04.209Z,2.40
2022-08-16T09:47:10.303Z,2.90
2022-08-16T09:50:14.583Z,2.60
2022-08-16T09:51:15.576Z,2.20
2022-08-16T09:52:14.511Z,2.60
2022-08-16T09:53:53.832Z,2.70
2022-08-16T09:54:49.788Z,2.60
2022-08-16T09:55:16.554Z,2.10
2022-08-16T09:56:52.564Z,2.80
2022-08-16T09:57:18.041Z,4.50
2022-08-16T09:58:41.912Z,2.80
2022-08-16T09:59:17.652Z,3.70
2022-08-16T10:00:49.565Z,2.20
2022-08-16T10:01:16.027Z,3.30
2022-08-16T10:02:27.366Z,2.40
2022-08-16T10:03:16.723Z,2.80
2022-08-16T10:04:29.289Z,2.50
2022-08-16T10:05:44.478Z,3.60
2022-08-16T10:06:48.338Z,2.40
2022-08-16T10:07:49.852Z,3.00
2022-08-16T10:08:26.399Z,2.40
2022-08-16T10:09:17.879Z,3.00
2022-08-16T10:10:18.805Z,2.60
2022-08-16T10:11:22.908Z,4.40
2022-08-16T10:12:43.031Z,2.60
2022-08-16T10:13:16.354Z,2.10
2022-08-16T10:14:16.302Z,2.20
2022-08-16T10:15:54.850Z,2.20
2022-08-16T10:16:42.159Z,2.90
2022-08-16T10:17:15.760Z,2.60
2022-08-16T10:18:56.270Z,2.30
2022-08-16T10:19:19.195Z,2.50
2022-08-16T10:20:18.654Z,3.90
2022-08-16T10:21:16.149Z,2.40
2022-08-16T10:22:15.447Z,2.50
2022-08-16T10:23:48.017Z,2.60
2022-08-16T10:24:28.261Z,2.50
2022-08-16T10:27:19.701Z,3.20
2022-08-16T10:27:19.702Z,3.00
2022-08-16T10:30:01.461Z,2.10
2022-08-16T10:30:58.777Z,2.50
2022-08-16T10:31:56.113Z,2.50
2022-08-16T10:32:56.082Z,2.60
2022-08-16T10:34:03.753Z,2.00
2022-08-16T10:37:36.194Z,2.80
2022-08-16T10:38:36.711Z,2.50
2022-08-16T10:39:41.718Z,3.90
2022-08-16T10:42:02.685Z,3.10
2022-08-16T10:43:02.299Z,2.50
2022-08-16T10:45:29.221Z,2.00
2022-08-16T10:46:39.052Z,2.20
2022-08-16T10:47:33.178Z,2.50
2022-08-16T10:48:31.141Z,2.30
2022-08-16T10:50:04.162Z,2.30
2022-08-16T10:50:30.524Z,2.10
2022-08-16T10:51:34.193Z,2.50
2022-08-16T10:53:32.772Z,2.90
2022-08-16T10:57:13.179Z,2.30
2022-08-16T10:58:13.237Z,2.20
2022-08-16T11:00:20.896Z,2.10
2022-08-16T11:01:40.206Z,2.70
2022-08-16T11:02:59.267Z,3.10
2022-08-16T11:05:14.306Z,2.70
2022-08-16T11:06:13.020Z,1.90
2022-08-16T11:08:16.389Z,3.50
2022-08-16T11:09:25.844Z,2.60
2022-08-16T11:10:19.975Z,3.60
2022-08-16T11:11:19.410Z,3.20
2022-08-16T11:12:15.215Z,2.30
2022-08-16T11:13:57.509Z,2.30
2022-08-16T11:14:16.231Z,2.20
2022-08-16T11:15:16.828Z,2.40
2022-08-16T11:17:16.747Z,2.60
2022-08-16T11:19:04.787Z,2.70
2022-08-16T11:19:16.226Z,2.70
2022-08-16T11:20:50.488Z,2.30
2022-08-16T11:21:28.444Z,2.00
2022-08-16T11:22:22.892Z,3.10
2022-08-16T11:23:57.802Z,4.10
2022-08-16T11:24:41.678Z,2.20
2022-08-16T11:26:03.798Z,2.20
2022-08-16T11:26:23.672Z,2.90
2022-08-16T11:27:40.567Z,3.40
2022-08-16T11:28:36.514Z,2.10
2022-08-16T11:29:41.566Z,2.50
2022-08-16T11:30:19.912Z,3.10
2022-08-16T11:31:40.709Z,2.00
2022-08-16T11:32:15.398Z,2.60
2022-08-16T11:33:15.133Z,3.30
2022-08-16T11:35:09.792Z,3.10
2022-08-16T11:35:15.978Z,2.20
2022-08-16T11:36:29.401Z,2.20
2022-08-16T11:38:23.442Z,2.00
2022-08-16T11:39:14.831Z,2.80
2022-08-16T11:40:52.369Z,2.50
2022-08-16T11:41:15.062Z,3.20
2022-08-16T11:42:29.211Z,2.20
2022-08-16T11:43:16.909Z,2.40
2022-08-16T11:44:53.322Z,2.50
2022-08-16T11:45:14.025Z,2.30
2022-08-16T11:46:44.563Z,2.80
2022-08-16T11:49:25.656Z,2.00
2022-08-16T11:50:25.925Z,2.20
2022-08-16T11:51:25.962Z,2.20
2022-08-16T11:52:27.852Z,3.60
2022-08-16T11:53:25.675Z,2.20
2022-08-16T11:54:33.218Z,2.90
2022-08-16T11:55:26.657Z,3.70
2022-08-16T11:56:37.623Z,2.20
2022-08-16T11:57:26.637Z,2.60
2022-08-16T11:58:25.665Z,2.40
2022-08-16T11:59:28.715Z,2.50
2022-08-16T12:00:50.382Z,3.50
2022-08-16T12:01:29.591Z,3.10
2022-08-16T12:02:32.310Z,4.10
2022-08-16T12:03:34.622Z,3.10
2022-08-16T12:04:26.663Z,2.40
2022-08-16T12:05:25.594Z,2.20
2022-08-16T12:06:30.589Z,3.30
2022-08-16T12:07:26.889Z,2.00
2022-08-16T12:09:01.824Z,2.00
2022-08-16T12:10:00.675Z,5.10
2022-08-16T12:10:59.582Z,3.20
2022-08-16T12:11:27.022Z,2.30
2022-08-16T12:13:02.746Z,2.30
2022-08-16T12:15:43.537Z,2.30
2022-08-16T12:16:45.741Z,2.90
2022-08-16T12:17:44.483Z,3.50
2022-08-16T12:19:44.560Z,2.50
2022-08-16T12:20:45.658Z,2.60
2022-08-16T12:21:58.212Z,3.20
2022-08-16T12:22:45.533Z,2.60
2022-08-16T12:23:44.429Z,2.20
2022-08-16T12:24:44.593Z,2.10
2022-08-16T12:26:17.010Z,2.70
2022-08-16T12:26:45.472Z,2.10
2022-08-16T12:27:44.617Z,2.30
2022-08-16T12:29:16.933Z,2.20
2022-08-16T12:29:45.361Z,2.50
2022-08-16T12:30:44.643Z,3.90
2022-08-16T12:32:36.184Z,4.30
2022-08-16T12:32:46.017Z,3.60
2022-08-16T12:33:45.877Z,3.30
2022-08-16T12:34:50.894Z,3.80
2022-08-16T12:35:45.339Z,2.30
2022-08-16T12:39:29.114Z,2.10
2022-08-16T12:40:29.279Z,2.30
2022-08-16T12:41:34.918Z,2.40
2022-08-16T12:42:34.414Z,2.50
2022-08-16T12:43:33.568Z,3.80
2022-08-16T12:44:35.033Z,2.40
2022-08-16T12:45:33.605Z,2.80
2022-08-16T12:46:28.062Z,2.20
2022-08-16T12:47:27.690Z,3.80
2022-08-16T12:48:33.758Z,2.30
2022-08-16T12:49:29.597Z,2.60
2022-08-16T12:50:33.385Z,2.60
2022-08-16T12:51:30.575Z,2.40
2022-08-16T12:52:53.670Z,2.50
2022-08-16T12:53:59.509Z,2.80
2022-08-16T12:55:01.604Z,2.20
2022-08-16T12:55:59.575Z,2.80
2022-08-16T12:56:27.283Z,2.30
2022-08-16T12:58:00.371Z,2.10
2022-08-16T12:58:50.480Z,2.30
2022-08-16T13:00:01.253Z,4.00
2022-08-16T13:00:59.589Z,2.50
2022-08-16T13:01:59.463Z,2.60
2022-08-16T13:02:59.397Z,2.50
2022-08-16T13:04:11.541Z,3.90
2022-08-16T13:05:02.689Z,2.20
2022-08-16T13:05:27.049Z,2.30
2022-08-16T13:06:59.459Z,2.10
2022-08-16T13:07:27.509Z,1.90
2022-08-16T13:08:59.450Z,2.40
2022-08-16T13:09:28.973Z,1.90
2022-08-16T13:10:38.134Z,1.90
2022-08-16T13:11:28.005Z,2.80
2022-08-16T13:12:26.867Z,2.10
2022-08-16T13:13:27.001Z,3.50
2022-08-16T13:14:31.491Z,2.30
2022-08-16T13:15:27.071Z,2.60
2022-08-16T13:16:27.301Z,2.50
2022-08-16T13:17:29.751Z,2.20
2022-08-16T13:18:33.931Z,2.00
2022-08-16T13:19:31.959Z,2.00
2022-08-16T13:20:53.339Z,2.90
2022-08-16T13:21:27.248Z,2.10
2022-08-16T13:22:27.463Z,3.20
2022-08-16T13:23:26.840Z,2.90
2022-08-16T13:24:26.837Z,2.40
2022-08-16T13:25:26.787Z,2.40
2022-08-16T13:26:28.156Z,3.00
2022-08-16T13:27:59.188Z,2.20
2022-08-16T13:28:31.219Z,1.80
2022-08-16T13:29:27.164Z,3.40
2022-08-16T13:30:37.647Z,1.80
2022-08-16T13:31:27.872Z,1.90
2022-08-16T13:32:40.112Z,2.10
2022-08-16T13:33:29.998Z,2.90
2022-08-16T13:34:27.859Z,2.30
2022-08-16T13:35:26.642Z,2.20
2022-08-16T13:37:28.841Z,3.50
2022-08-16T13:38:30.146Z,2.60
2022-08-16T13:39:27.741Z,3.30
2022-08-16T13:40:26.733Z,2.70
2022-08-16T13:41:26.670Z,2.40
2022-08-16T13:42:26.773Z,2.60
2022-08-16T13:43:27.265Z,2.50
2022-08-16T13:44:36.036Z,2.20
2022-08-16T13:45:28.359Z,2.60
2022-08-16T13:46:27.808Z,2.80
2022-08-16T13:47:30.363Z,3.50
2022-08-16T13:48:42.551Z,2.70
2022-08-16T13:49:27.689Z,2.20
2022-08-16T13:50:31.191Z,3.00
2022-08-16T13:51:29.165Z,5.40
2022-08-16T13:52:29.820Z,2.90
2022-08-16T13:53:27.588Z,3.90
2022-08-16T13:54:28.633Z,3.30
2022-08-16T13:55:27.563Z,2.40
2022-08-16T13:56:26.622Z,2.60
2022-08-16T13:57:53.268Z,2.60
2022-08-16T13:58:36.851Z,2.90
2022-08-16T13:59:29.454Z,2.40
2022-08-16T14:00:26.532Z,3.20
2022-08-16T14:01:26.452Z,4.40
2022-08-16T14:02:26.656Z,3.40
2022-08-16T14:03:26.513Z,2.90
2022-08-16T14:04:26.967Z,2.80
2022-08-16T14:05:27.289Z,3.60
2022-08-16T14:06:26.325Z,2.20
2022-08-16T14:07:26.554Z,4.60
2022-08-16T14:08:27.447Z,2.90
2022-08-16T14:09:28.339Z,4.30
2022-08-16T14:10:26.387Z,2.50
2022-08-16T14:11:26.539Z,3.40
2022-08-16T14:12:26.518Z,2.90
2022-08-16T14:13:26.395Z,2.70
2022-08-16T14:14:28.533Z,2.70
2022-08-16T14:15:26.376Z,2.90
2022-08-16T14:16:33.489Z,2.30
2022-08-16T14:17:26.487Z,2.60
2022-08-16T14:18:31.114Z,2.40
2022-08-16T14:19:26.545Z,2.30
2022-08-16T14:20:26.266Z,2.30
2022-08-16T14:21:26.210Z,3.90
2022-08-16T14:22:31.074Z,2.90
2022-08-16T14:23:27.246Z,2.80
2022-08-16T14:24:30.132Z,2.50
2022-08-16T14:25:26.814Z,3.50
2022-08-16T14:26:26.140Z,3.40
2022-08-16T14:27:26.224Z,3.60
2022-08-16T14:28:26.761Z,3.10
2022-08-16T14:29:26.200Z,2.90
2022-08-16T14:30:27.334Z,3.40
2022-08-16T14:31:26.188Z,4.00
2022-08-16T14:32:53.081Z,2.60
2022-08-16T14:33:26.460Z,2.50
2022-08-16T14:35:00.855Z,2.50
2022-08-16T14:35:36.535Z,3.90
2022-08-16T14:36:29.747Z,2.60
2022-08-16T14:37:58.754Z,3.00
2022-08-16T14:38:29.704Z,4.00
2022-08-16T14:39:27.117Z,2.70
2022-08-16T14:40:29.107Z,2.80
2022-08-16T14:41:26.069Z,3.00
2022-08-16T14:42:26.036Z,3.90
2022-08-16T14:44:05.363Z,3.60
2022-08-16T14:44:27.125Z,2.80
2022-08-16T14:47:41.944Z,2.30
2022-08-16T14:48:42.235Z,2.30
2022-08-16T14:49:41.958Z,3.30
2022-08-16T14:50:42.219Z,2.40
2022-08-16T14:51:41.919Z,3.00
2022-08-16T14:52:55.198Z,2.40
2022-08-16T14:53:45.510Z,2.20
2022-08-16T14:54:44.183Z,2.90
2022-08-16T14:55:43.259Z,4.80
2022-08-16T14:56:46.909Z,3.20
2022-08-16T14:57:44.038Z,2.30
2022-08-16T14:58:43.136Z,2.80
2022-08-16T14:59:45.461Z,3.10
2022-08-16T15:00:43.090Z,2.30
2022-08-16T15:01:58.811Z,3.50
2022-08-16T15:02:43.974Z,2.50
2022-08-16T15:03:44.926Z,2.10
2022-08-16T15:04:48.406Z,2.30
2022-08-16T15:05:43.982Z,2.90
2022-08-16T15:06:43.018Z,2.70
2022-08-16T15:07:42.975Z,2.80
2022-08-16T15:08:42.950Z,2.40
2022-08-16T15:09:44.576Z,2.70
2022-08-16T15:10:45.677Z,2.50
2022-08-16T15:11:45.166Z,3.50
2022-08-16T15:12:42.889Z,2.60
2022-08-16T15:13:42.879Z,2.80
2022-08-16T15:14:42.900Z,2.70
2022-08-16T15:15:42.848Z,5.70
2022-08-16T15:16:45.969Z,2.80
2022-08-16T15:17:54.038Z,2.30
2022-08-16T15:18:46.470Z,3.00
2022-08-16T15:19:42.886Z,2.80
2022-08-16T15:20:42.863Z,2.90
2022-08-16T15:21:42.978Z,4.60
2022-08-16T15:22:42.791Z,2.70
2022-08-16T15:23:42.805Z,2.20
2022-08-16T15:24:42.811Z,2.90
2022-08-16T15:25:42.836Z,3.10
2022-08-16T15:26:45.238Z,2.60
2022-08-16T15:27:42.734Z,2.20
2022-08-16T15:28:43.582Z,2.50
2022-08-16T15:29:42.719Z,2.40
2022-08-16T15:30:59.900Z,2.90
2022-08-16T15:31:43.744Z,4.40
2022-08-16T15:32:42.694Z,2.90
2022-08-16T15:35:44.243Z,2.70
2022-08-16T15:36:44.265Z,1.80
2022-08-16T15:37:44.202Z,3.30
2022-08-16T15:39:02.570Z,2.40
2022-08-16T15:39:48.585Z,2.40
2022-08-16T15:40:54.936Z,3.60
2022-08-16T15:41:46.932Z,3.00
2022-08-16T15:42:47.309Z,2.60
2022-08-16T15:43:46.366Z,2.10
2022-08-16T15:44:51.948Z,3.00
2022-08-16T15:45:46.365Z,2.90
2022-08-16T15:46:56.906Z,2.20
2022-08-16T15:47:55.546Z,3.90
2022-08-16T15:48:46.401Z,4.50
2022-08-16T15:49:45.852Z,2.20
2022-08-16T15:50:45.316Z,2.30
2022-08-16T15:51:45.543Z,3.40
2022-08-16T15:52:45.295Z,2.40
2022-08-16T15:53:46.580Z,2.30
2022-08-16T15:54:52.279Z,2.60
2022-08-16T15:55:46.336Z,3.00
2022-08-16T15:56:45.296Z,2.50
2022-08-16T15:57:45.183Z,2.40
2022-08-16T15:58:45.288Z,2.50
2022-08-16T15:59:49.092Z,3.40
2022-08-16T16:00:46.222Z,2.40
2022-08-16T16:01:45.157Z,2.20
2022-08-16T16:02:45.256Z,2.50
2022-08-16T16:03:45.211Z,3.00
2022-08-16T16:04:45.250Z,2.20
2022-08-16T16:05:45.191Z,3.20
2022-08-16T16:06:45.162Z,3.30
2022-08-16T16:07:56.127Z,2.80
2022-08-16T16:08:46.128Z,2.70
2022-08-16T16:09:45.574Z,3.00
2022-08-16T16:10:54.281Z,3.90
2022-08-16T16:11:46.134Z,2.90
2022-08-16T16:12:51.126Z,3.40
2022-08-16T16:13:46.104Z,3.30
2022-08-16T16:14:45.071Z,2.50
2022-08-16T16:15:45.096Z,2.40
2022-08-16T16:16:45.848Z,3.20
2022-08-16T16:17:51.269Z,2.10
2022-08-16T16:18:49.077Z,2.90
2022-08-16T16:19:45.166Z,2.30
2022-08-16T16:20:45.097Z,2.00
2022-08-16T16:21:45.009Z,2.60
2022-08-16T16:22:45.004Z,2.70
2022-08-16T16:23:54.931Z,3.20
2022-08-16T16:24:46.028Z,2.80
2022-08-16T16:25:45.038Z,2.90
2022-08-16T16:26:45.806Z,2.70
2022-08-16T16:27:45.288Z,2.40
2022-08-16T16:29:07.719Z,3.70
2022-08-16T16:29:46.300Z,3.10
2022-08-16T16:30:45.546Z,2.30
2022-08-16T16:31:59.265Z,2.60
2022-08-16T16:32:45.972Z,2.30
2022-08-16T16:33:45.904Z,2.60
2022-08-16T16:34:45.003Z,3.00
2022-08-16T16:35:46.578Z,2.40
2022-08-16T16:36:48.499Z,2.20
2022-08-16T16:37:44.891Z,3.10
2022-08-16T16:38:44.916Z,2.90
2022-08-16T16:39:44.895Z,2.40
2022-08-16T16:40:46.280Z,2.40
2022-08-16T16:41:44.815Z,4.50
2022-08-16T16:42:44.851Z,3.30
2022-08-16T16:43:45.845Z,2.50
2022-08-16T16:44:51.012Z,2.40
2022-08-16T16:45:44.868Z,2.70
2022-08-16T16:46:44.844Z,4.30
2022-08-16T16:48:12.457Z,3.30
2022-08-16T16:48:45.093Z,2.40
2022-08-16T16:49:45.104Z,2.70
2022-08-16T16:50:45.475Z,2.80
2022-08-16T16:51:49.674Z,4.50
2022-08-16T16:52:45.226Z,3.00
2022-08-16T16:53:45.887Z,3.10
2022-08-16T16:54:45.804Z,2.30
2022-08-16T16:55:47.737Z,2.90
2022-08-16T16:56:49.676Z,2.80
2022-08-16T16:57:45.809Z,2.80
2022-08-16T16:58:53.524Z,2.90
2022-08-16T16:59:45.703Z,3.00
2022-08-16T17:00:44.692Z,3.60
2022-08-16T17:01:59.410Z,2.70
2022-08-16T17:02:49.556Z,2.90
2022-08-16T17:03:44.704Z,3.00
2022-08-16T17:04:45.671Z,3.70
2022-08-16T17:05:54.181Z,2.60
2022-08-16T17:06:53.344Z,3.60
2022-08-16T17:08:11.080Z,2.70
2022-08-16T17:08:44.953Z,3.30
2022-08-16T17:09:44.824Z,3.40
2022-08-16T17:10:45.807Z,3.00
2022-08-16T17:11:44.571Z,2.70
2022-08-16T17:12:44.543Z,2.80
2022-08-16T17:13:44.564Z,3.20
2022-08-16T17:14:44.538Z,2.60
2022-08-16T17:15:44.602Z,5.10
2022-08-16T17:16:46.891Z,3.00
2022-08-16T17:17:59.843Z,2.30
2022-08-16T17:19:06.467Z,3.10
2022-08-16T17:19:45.641Z,2.40
2022-08-16T17:21:12.320Z,3.90
2022-08-16T17:21:44.833Z,2.90
2022-08-16T17:23:17.408Z,3.00
2022-08-16T17:23:58.583Z,3.00
2022-08-16T17:24:50.345Z,3.20
2022-08-16T17:25:45.602Z,3.60